Time;durP1;ratioP1;P1;durP2;ratioP2;P2;SDS_P1;SDS_P2;PMS_P1;PMS_P2;Temp;Humidity;BMP_temperature;BMP_pressure;BME280_temperature;BME280_humidity;BME280_pressure;Samples;Min_cycle;Max_cycle;Signal;HPM_P1;HPM_P2
2023/01/22 00:01:30;;;;;;;28.85;15.20;;;;;;;;;;5075040;28;20247;-43
2023/01/22 00:03:56;;;;;;;32.00;17.40;;;;;;;;;;5071311;28;20166;-43
2023/01/22 00:06:22;;;;;;;34.20;18.07;;;;;;;;;;5074154;28;20408;-43
2023/01/22 00:08:48;;;;;;;28.67;15.73;;;;;;;;;;5073901;28;20424;-44
2023/01/22 00:11:15;;;;;;;35.42;17.02;;;;;;;;;;5076808;28;20174;-42
2023/01/22 00:13:41;;;;;;;35.42;17.80;;;;;;;;;;5071235;28;20534;-42
2023/01/22 00:16:08;;;;;;;33.25;15.63;;;;;;;;;;5071091;28;20713;-43
2023/01/22 00:18:34;;;;;;;33.00;15.10;;;;;;;;;;5070775;28;20162;-44
2023/01/22 00:21:00;;;;;;;30.00;15.55;;;;;;;;;;5071278;28;20506;-43
2023/01/22 00:23:26;;;;;;;30.77;15.63;;;;;;;;;;5071142;28;20182;-43
2023/01/22 00:26:24;;;;;;;27.40;15.00;;;;;;;;;;5076453;28;20202;-42
2023/01/22 00:28:50;;;;;;;24.30;13.45;;;;;;;;;;5045322;28;20210;-44
2023/01/22 00:31:17;;;;;;;26.33;15.10;;;;;;;;;;5071001;28;20178;-43
2023/01/22 00:33:43;;;;;;;28.55;16.35;;;;;;;;;;5073318;28;20448;-42
2023/01/22 00:36:11;;;;;;;23.23;13.27;;;;;;;;;;5070986;28;20266;-43
2023/01/22 00:38:37;;;;;;;28.77;14.80;;;;;;;;;;5075184;28;20187;-43
2023/01/22 00:41:04;;;;;;;25.60;12.70;;;;;;;;;;5071801;28;20221;-43
2023/01/22 00:43:30;;;;;;;25.80;14.80;;;;;;;;;;5070869;28;20674;-46
2023/01/22 00:45:56;;;;;;;24.45;14.65;;;;;;;;;;5070849;28;20182;-44
2023/01/22 00:48:22;;;;;;;24.70;14.15;;;;;;;;;;5072768;28;20424;-44
2023/01/22 00:50:49;;;;;;;21.73;12.90;;;;;;;;;;5071000;28;20189;-46
2023/01/22 00:53:14;;;;;;;26.25;13.88;;;;;;;;;;5078555;28;20420;-45
2023/01/22 00:55:49;;;;;;;28.97;14.57;;;;;;;;;;5069993;28;20263;-43
2023/01/22 00:58:15;;;;;;;27.17;17.33;;;;;;;;;;5066794;28;20917;-43
2023/01/22 01:00:41;;;;;;;24.67;13.33;;;;;;;;;;5076101;28;20198;-44
2023/01/22 01:05:52;;;;;;;27.23;14.77;;;;;;;;;;5071962;28;20955;-45
2023/01/22 01:08:18;;;;;;;24.80;15.93;;;;;;;;;;5074060;28;20178;-44
2023/01/22 01:10:44;;;;;;;30.60;13.50;;;;;;;;;;5090042;28;20310;-45
2023/01/22 01:13:10;;;;;;;26.70;14.53;;;;;;;;;;5074310;28;20666;-45
2023/01/22 01:15:36;;;;;;;29.25;15.45;;;;;;;;;;5075948;28;20453;-46
2023/01/22 01:18:02;;;;;;;25.13;14.23;;;;;;;;;;5077645;28;20272;-43
2023/01/22 01:20:28;;;;;;;24.30;13.85;;;;;;;;;;5076856;28;20197;-46
2023/01/22 01:22:54;;;;;;;29.57;15.53;;;;;;;;;;5076091;28;20173;-46
2023/01/22 01:25:20;;;;;;;24.93;13.50;;;;;;;;;;5073945;28;20396;-46
2023/01/22 01:27:46;;;;;;;25.50;13.23;;;;;;;;;;5073588;28;20400;-46
2023/01/22 01:30:12;;;;;;;26.40;14.47;;;;;;;;;;5075456;28;20432;-46
2023/01/22 01:32:38;;;;;;;24.77;13.67;;;;;;;;;;5077363;28;20412;-46
2023/01/22 01:35:05;;;;;;;24.27;12.83;;;;;;;;;;5073716;28;20420;-46
2023/01/22 01:37:30;;;;;;;28.90;13.85;;;;;;;;;;5081940;28;20887;-46
2023/01/22 01:39:56;;;;;;;22.97;13.57;;;;;;;;;;5073108;28;20216;-46
2023/01/22 01:42:24;;;;;;;24.37;12.53;;;;;;;;;;5073938;28;20818;-46
2023/01/22 01:45:16;;;;;;;26.63;13.45;;;;;;;;;;5073543;28;20401;-45
2023/01/22 01:47:42;;;;;;;24.40;13.75;;;;;;;;;;5053596;28;20247;-46
2023/01/22 01:50:08;;;;;;;25.47;13.93;;;;;;;;;;5073102;28;20206;-46
2023/01/22 01:52:34;;;;;;;26.90;14.57;;;;;;;;;;5080268;28;20443;-46
2023/01/22 01:55:00;;;;;;;25.07;14.07;;;;;;;;;;5073422;28;20567;-46
2023/01/22 01:57:29;;;;;;;22.98;13.88;;;;;;;;;;5075141;28;20409;-46
2023/01/22 01:59:56;;;;;;;26.00;13.73;;;;;;;;;;5072900;28;20737;-46
2023/01/22 02:02:22;;;;;;;28.75;14.23;;;;;;;;;;5072616;28;20257;-46
2023/01/22 02:04:48;;;;;;;19.52;11.75;;;;;;;;;;5071848;28;20176;-46
2023/01/22 02:07:14;;;;;;;26.23;14.02;;;;;;;;;;5079832;28;20166;-46
2023/01/22 02:09:40;;;;;;;20.27;11.83;;;;;;;;;;5072727;28;20196;-47
2023/01/22 02:12:06;;;;;;;25.60;13.80;;;;;;;;;;5074667;28;20416;-46
2023/01/22 02:14:34;;;;;;;28.27;14.77;;;;;;;;;;5076297;28;20412;-46
2023/01/22 02:17:08;;;;;;;24.63;14.00;;;;;;;;;;5077832;28;20223;-45
2023/01/22 02:19:34;;;;;;;25.40;13.82;;;;;;;;;;5072553;28;20193;-46
2023/01/22 02:22:00;;;;;;;22.63;13.93;;;;;;;;;;5074968;28;20194;-46
2023/01/22 02:24:28;;;;;;;22.20;14.40;;;;;;;;;;5078830;28;20405;-46
2023/01/22 02:26:54;;;;;;;24.10;12.70;;;;;;;;;;5072501;28;20246;-48
2023/01/22 02:29:21;;;;;;;22.20;12.47;;;;;;;;;;5075228;28;20199;-47
2023/01/22 02:31:46;;;;;;;26.13;13.95;;;;;;;;;;5072511;28;20484;-46
2023/01/22 02:34:12;;;;;;;23.97;13.20;;;;;;;;;;5079294;28;20669;-47
2023/01/22 02:36:39;;;;;;;20.43;12.43;;;;;;;;;;5080046;28;20744;-46
2023/01/22 02:39:05;;;;;;;26.77;12.77;;;;;;;;;;5072874;28;20429;-47
2023/01/22 02:41:31;;;;;;;27.93;12.73;;;;;;;;;;5073821;28;20190;-47
2023/01/22 02:43:57;;;;;;;23.20;13.15;;;;;;;;;;5074072;28;20487;-48
2023/01/22 02:46:24;;;;;;;24.60;13.13;;;;;;;;;;5077361;28;20253;-46
2023/01/22 02:48:50;;;;;;;23.67;12.80;;;;;;;;;;5078752;28;20490;-46
2023/01/22 02:51:16;;;;;;;18.63;11.02;;;;;;;;;;5080716;28;20260;-48
2023/01/22 02:53:42;;;;;;;22.17;12.93;;;;;;;;;;5072307;28;20304;-48
2023/01/22 02:56:09;;;;;;;29.97;13.30;;;;;;;;;;5074042;28;20409;-47
2023/01/22 02:58:35;;;;;;;25.25;13.60;;;;;;;;;;5075547;28;20419;-46
2023/01/22 03:01:20;;;;;;;26.05;15.02;;;;;;;;;;5073532;28;20280;-48
2023/01/22 03:03:50;;;;;;;22.05;13.10;;;;;;;;;;5075407;28;20257;-46
2023/01/22 03:06:20;;;;;;;20.50;11.70;;;;;;;;;;5079648;28;20170;-45
2023/01/22 03:08:46;;;;;;;18.42;11.52;;;;;;;;;;5071698;28;20186;-45
2023/01/22 03:11:12;;;;;;;18.58;12.15;;;;;;;;;;5075203;28;20316;-46
2023/01/22 03:21:53;;;;;;;22.83;12.75;;;;;;;;;;5071728;28;20228;-45
2023/01/22 03:24:18;;;;;;;24.05;13.70;;;;;;;;;;5074897;28;20635;-46
2023/01/22 03:26:44;;;;;;;22.33;12.97;;;;;;;;;;5070167;28;20189;-46
2023/01/22 03:29:10;;;;;;;20.67;12.40;;;;;;;;;;5071964;28;20487;-46
2023/01/22 03:31:36;;;;;;;22.60;13.83;;;;;;;;;;5076252;28;20678;-47
2023/01/22 03:34:02;;;;;;;22.30;13.33;;;;;;;;;;5073106;28;20427;-46
2023/01/22 03:36:28;;;;;;;19.58;12.10;;;;;;;;;;5072779;28;20424;-46
2023/01/22 03:38:54;;;;;;;19.00;12.00;;;;;;;;;;5074473;28;20186;-46
2023/01/22 03:41:20;;;;;;;22.40;13.20;;;;;;;;;;5076466;28;21002;-46
2023/01/22 03:43:46;;;;;;;18.43;11.67;;;;;;;;;;5077839;28;20408;-46
2023/01/22 03:46:14;;;;;;;18.08;12.00;;;;;;;;;;5071482;28;20405;-46
2023/01/22 03:48:40;;;;;;;16.67;10.77;;;;;;;;;;5071233;28;20639;-46
2023/01/22 03:51:05;;;;;;;21.40;12.37;;;;;;;;;;5071392;28;20216;-46
2023/01/22 03:53:32;;;;;;;19.07;11.50;;;;;;;;;;5074693;28;20397;-46
2023/01/22 03:55:59;;;;;;;21.38;11.93;;;;;;;;;;5076204;28;20412;-46
2023/01/22 03:58:25;;;;;;;25.50;12.80;;;;;;;;;;5077537;28;20173;-46
2023/01/22 04:00:51;;;;;;;18.85;12.80;;;;;;;;;;5079153;28;20201;-47
2023/01/22 04:03:17;;;;;;;20.92;12.35;;;;;;;;;;5071412;28;20185;-48
2023/01/22 04:05:43;;;;;;;18.00;11.93;;;;;;;;;;5074013;28;20177;-46
2023/01/22 04:08:09;;;;;;;19.13;12.20;;;;;;;;;;5071185;28;20441;-46
2023/01/22 04:10:35;;;;;;;19.13;12.20;;;;;;;;;;5075947;28;20428;-46
2023/01/22 04:13:01;;;;;;;27.10;14.27;;;;;;;;;;5077560;28;20420;-46
2023/01/22 04:15:26;;;;;;;22.93;12.90;;;;;;;;;;5079175;28;20423;-46
2023/01/22 04:17:52;;;;;;;22.00;13.40;;;;;;;;;;5071138;28;20456;-46
2023/01/22 04:20:18;;;;;;;18.73;11.53;;;;;;;;;;5073628;28;20471;-46
2023/01/22 04:22:44;;;;;;;20.10;13.17;;;;;;;;;;5075036;28;20408;-46
2023/01/22 04:25:10;;;;;;;20.03;13.47;;;;;;;;;;5072854;28;20851;-46
2023/01/22 04:27:36;;;;;;;21.63;12.67;;;;;;;;;;5077286;28;20445;-46
2023/01/22 04:30:04;;;;;;;17.02;12.40;;;;;;;;;;5082688;28;20432;-46
2023/01/22 04:32:30;;;;;;;19.02;12.35;;;;;;;;;;5075077;28;20181;-46
2023/01/22 04:34:56;;;;;;;25.13;14.67;;;;;;;;;;5074751;28;20541;-45
2023/01/22 04:37:22;;;;;;;16.80;10.70;;;;;;;;;;5079317;28;20481;-46
2023/01/22 04:39:48;;;;;;;19.20;13.50;;;;;;;;;;5080789;28;20439;-46
2023/01/22 04:42:14;;;;;;;26.90;13.57;;;;;;;;;;5078507;28;20941;-46
2023/01/22 04:44:40;;;;;;;22.93;13.10;;;;;;;;;;5078892;28;20202;-46
2023/01/22 04:47:06;;;;;;;18.98;13.20;;;;;;;;;;5075030;28;20771;-46
2023/01/22 04:49:32;;;;;;;21.00;11.90;;;;;;;;;;5077127;28;20195;-46
2023/01/22 04:51:58;;;;;;;26.07;13.93;;;;;;;;;;5079285;28;20489;-46
2023/01/22 04:54:24;;;;;;;19.80;12.98;;;;;;;;;;5080761;28;20895;-46
2023/01/22 04:56:50;;;;;;;23.80;13.33;;;;;;;;;;5074284;28;20211;-46
2023/01/22 04:59:16;;;;;;;23.47;13.87;;;;;;;;;;5074328;28;20494;-46
2023/01/22 05:01:43;;;;;;;25.67;15.20;;;;;;;;;;5076704;28;20524;-45
2023/01/22 05:04:09;;;;;;;20.52;11.80;;;;;;;;;;5074410;28;20158;-47
2023/01/22 05:06:35;;;;;;;19.83;13.20;;;;;;;;;;5078860;28;20188;-46
2023/01/22 05:09:00;;;;;;;22.23;13.10;;;;;;;;;;5080143;28;20788;-46
2023/01/22 05:11:26;;;;;;;25.53;12.77;;;;;;;;;;5082086;28;20405;-46
2023/01/22 05:13:53;;;;;;;22.73;14.10;;;;;;;;;;5074313;28;20822;-46
2023/01/22 05:16:19;;;;;;;26.10;12.93;;;;;;;;;;5076847;28;20955;-46
2023/01/22 05:18:45;;;;;;;23.30;14.68;;;;;;;;;;5078093;28;20202;-45
2023/01/22 05:21:11;;;;;;;22.30;14.48;;;;;;;;;;5075473;28;20736;-46
2023/01/22 05:23:37;;;;;;;24.90;13.23;;;;;;;;;;5078544;28;20182;-46
2023/01/22 05:26:03;;;;;;;25.47;14.77;;;;;;;;;;5081692;28;20843;-46
2023/01/22 05:28:29;;;;;;;22.60;13.13;;;;;;;;;;5073754;28;20408;-46
2023/01/22 05:30:55;;;;;;;15.13;10.03;;;;;;;;;;5076107;28;20931;-46
2023/01/22 05:33:20;;;;;;;23.03;11.80;;;;;;;;;;5077804;28;21116;-46
2023/01/22 05:35:54;;;;;;;22.97;13.80;;;;;;;;;;5079152;28;20408;-46
2023/01/22 05:38:20;;;;;;;24.55;12.75;;;;;;;;;;5077368;28;20772;-46
2023/01/22 05:40:46;;;;;;;21.30;12.80;;;;;;;;;;5076370;28;20186;-46
2023/01/22 05:43:12;;;;;;;24.70;13.03;;;;;;;;;;5073837;28;20405;-46
2023/01/22 05:45:38;;;;;;;24.60;13.03;;;;;;;;;;5076052;28;20405;-46
2023/01/22 05:48:04;;;;;;;22.30;13.73;;;;;;;;;;5077835;28;20448;-46
2023/01/22 05:50:30;;;;;;;21.10;12.25;;;;;;;;;;5079352;28;20428;-46
2023/01/22 05:52:56;;;;;;;25.97;14.20;;;;;;;;;;5081334;28;20657;-46
2023/01/22 05:55:22;;;;;;;22.27;12.47;;;;;;;;;;5075347;28;20839;-46
2023/01/22 05:57:48;;;;;;;26.55;17.02;;;;;;;;;;5075909;28;20404;-46
2023/01/22 06:00:14;;;;;;;29.75;13.60;;;;;;;;;;5073023;28;20190;-46
2023/01/22 06:02:40;;;;;;;19.83;12.57;;;;;;;;;;5077363;28;20182;-46
2023/01/22 06:05:06;;;;;;;20.73;12.43;;;;;;;;;;5079313;28;20170;-45
2023/01/22 06:07:32;;;;;;;23.30;15.23;;;;;;;;;;5080836;28;20452;-45
2023/01/22 06:09:58;;;;;;;23.33;13.75;;;;;;;;;;5072810;28;20217;-45
2023/01/22 06:12:24;;;;;;;24.05;14.30;;;;;;;;;;5075731;28;20232;-46
2023/01/22 06:14:52;;;;;;;22.88;13.60;;;;;;;;;;5077063;28;20672;-46
2023/01/22 06:17:18;;;;;;;18.48;10.07;;;;;;;;;;5075146;28;20250;-46
2023/01/22 06:19:43;;;;;;;20.92;11.13;;;;;;;;;;5076481;28;20231;-46
2023/01/22 06:22:09;;;;;;;22.57;12.80;;;;;;;;;;5080548;28;20679;-47
2023/01/22 06:24:36;;;;;;;20.23;12.83;;;;;;;;;;5072926;28;20771;-45
2023/01/22 06:27:02;;;;;;;20.88;11.25;;;;;;;;;;5075194;28;20501;-45
2023/01/22 06:29:28;;;;;;;22.75;13.82;;;;;;;;;;5076596;28;20186;-46
2023/01/22 06:31:55;;;;;;;19.30;11.47;;;;;;;;;;5078559;28;20690;-46
2023/01/22 06:34:21;;;;;;;18.35;11.85;;;;;;;;;;5076951;28;20404;-46
2023/01/22 06:36:47;;;;;;;23.70;15.87;;;;;;;;;;5075770;28;20327;-48
2023/01/22 06:39:13;;;;;;;17.77;11.90;;;;;;;;;;5072399;28;20432;-46
2023/01/22 06:41:39;;;;;;;19.75;12.35;;;;;;;;;;5074582;28;20452;-46
2023/01/22 06:44:05;;;;;;;22.60;13.23;;;;;;;;;;5073585;28;20232;-45
2023/01/22 06:46:31;;;;;;;20.30;12.40;;;;;;;;;;5078144;28;20410;-45
2023/01/22 06:48:58;;;;;;;20.17;12.13;;;;;;;;;;5072160;28;20799;-45
2023/01/22 06:51:25;;;;;;;21.63;11.95;;;;;;;;;;5072553;28;20412;-45
2023/01/22 06:53:50;;;;;;;18.95;12.30;;;;;;;;;;5074588;28;20188;-45
2023/01/22 06:56:16;;;;;;;25.17;11.60;;;;;;;;;;5072461;28;20174;-45
2023/01/22 06:58:42;;;;;;;23.13;13.60;;;;;;;;;;5075712;28;20401;-45
2023/01/22 07:01:09;;;;;;;26.97;13.43;;;;;;;;;;5077861;28;20496;-45
2023/01/22 07:03:35;;;;;;;20.45;11.98;;;;;;;;;;5080156;28;20412;-45
2023/01/22 07:06:02;;;;;;;21.80;12.67;;;;;;;;;;5072005;28;20173;-45
2023/01/22 07:08:28;;;;;;;19.20;11.57;;;;;;;;;;5074211;28;20546;-45
2023/01/22 07:10:54;;;;;;;18.73;10.95;;;;;;;;;;5075949;28;20185;-45
2023/01/22 07:13:20;;;;;;;17.50;11.07;;;;;;;;;;5074260;28;20174;-45
2023/01/22 07:15:46;;;;;;;17.45;12.15;;;;;;;;;;5075051;28;20973;-45
2023/01/22 07:18:13;;;;;;;19.77;12.67;;;;;;;;;;5079018;28;20223;-45
2023/01/22 07:20:40;;;;;;;23.08;12.30;;;;;;;;;;5072136;28;20581;-45
2023/01/22 07:23:06;;;;;;;17.92;9.95;;;;;;;;;;5074085;28;20180;-45
2023/01/22 07:25:32;;;;;;;22.97;13.50;;;;;;;;;;5075653;28;20174;-45
2023/01/22 07:28:01;;;;;;;17.27;10.87;;;;;;;;;;5077246;28;20414;-45
2023/01/22 07:30:28;;;;;;;17.15;10.27;;;;;;;;;;5077034;28;20511;-46
2023/01/22 07:32:57;;;;;;;22.50;12.80;;;;;;;;;;5073949;28;20781;-46
2023/01/22 07:35:23;;;;;;;19.23;10.95;;;;;;;;;;5071797;28;20166;-46
2023/01/22 07:37:52;;;;;;;20.30;12.10;;;;;;;;;;5073769;28;20711;-46
2023/01/22 07:40:19;;;;;;;17.92;10.77;;;;;;;;;;5075073;28;20464;-46
2023/01/22 07:42:44;;;;;;;19.27;12.43;;;;;;;;;;5077156;28;20584;-46
2023/01/22 07:45:10;;;;;;;20.17;12.20;;;;;;;;;;5078773;28;20265;-46
2023/01/22 07:47:36;;;;;;;19.40;12.50;;;;;;;;;;5071448;28;20396;-47
2023/01/22 07:50:03;;;;;;;17.50;11.97;;;;;;;;;;5073419;28;20687;-46
2023/01/22 07:52:28;;;;;;;18.10;12.05;;;;;;;;;;5073199;28;20397;-46
2023/01/22 07:54:54;;;;;;;21.67;12.57;;;;;;;;;;5075231;28;20193;-46
2023/01/22 07:57:20;;;;;;;20.50;11.10;;;;;;;;;;5071352;28;20428;-46
2023/01/22 07:59:46;;;;;;;21.10;12.60;;;;;;;;;;5078370;28;20421;-46
2023/01/22 08:02:13;;;;;;;19.90;12.47;;;;;;;;;;5072074;28;20462;-45
2023/01/22 08:04:39;;;;;;;15.45;10.95;;;;;;;;;;5077696;28;20415;-46
2023/01/22 08:07:05;;;;;;;18.17;10.48;;;;;;;;;;5079216;28;20543;-46
2023/01/22 08:09:31;;;;;;;20.00;11.10;;;;;;;;;;5078838;28;20202;-46
2023/01/22 08:11:57;;;;;;;16.03;11.90;;;;;;;;;;5077209;28;20408;-48
2023/01/22 08:14:23;;;;;;;18.15;12.20;;;;;;;;;;5081198;28;20396;-44
2023/01/22 08:16:49;;;;;;;17.57;11.50;;;;;;;;;;5074451;28;20178;-46
2023/01/22 08:19:15;;;;;;;18.70;10.63;;;;;;;;;;5076447;28;20436;-45
2023/01/22 08:21:41;;;;;;;20.27;11.60;;;;;;;;;;5071765;28;20460;-46
2023/01/22 08:24:09;;;;;;;20.73;12.13;;;;;;;;;;5073724;28;20452;-46
2023/01/22 08:26:35;;;;;;;20.10;12.32;;;;;;;;;;5080020;28;20408;-46
2023/01/22 08:29:01;;;;;;;20.88;11.10;;;;;;;;;;5075168;28;20239;-46
2023/01/22 08:31:27;;;;;;;19.30;12.17;;;;;;;;;;5074547;28;20172;-46
2023/01/22 08:33:53;;;;;;;17.43;11.30;;;;;;;;;;5076200;28;20448;-46
2023/01/22 08:36:19;;;;;;;17.15;10.77;;;;;;;;;;5078260;28;20439;-45
2023/01/22 08:38:45;;;;;;;19.53;12.70;;;;;;;;;;5076502;28;20672;-45
2023/01/22 08:41:11;;;;;;;17.60;10.87;;;;;;;;;;5077816;28;20869;-46
2023/01/22 08:43:37;;;;;;;19.53;12.50;;;;;;;;;;5079268;28;20903;-46
2023/01/22 08:46:03;;;;;;;16.90;10.83;;;;;;;;;;5074611;28;20417;-48
2023/01/22 08:48:29;;;;;;;18.43;10.77;;;;;;;;;;5074288;28;20461;-48
2023/01/22 08:50:54;;;;;;;16.70;10.60;;;;;;;;;;5074281;28;20444;-46
2023/01/22 08:53:20;;;;;;;18.10;10.90;;;;;;;;;;5074469;28;20408;-46
2023/01/22 08:55:49;;;;;;;19.60;11.03;;;;;;;;;;5077413;28;20412;-46
2023/01/22 08:58:15;;;;;;;15.90;10.48;;;;;;;;;;5074259;28;20928;-46
2023/01/22 09:00:43;;;;;;;16.10;12.93;;;;;;;;;;5080369;28;20241;-46
2023/01/22 09:03:09;;;;;;;19.33;12.52;;;;;;;;;;5082073;28;20420;-46
2023/01/22 09:05:38;;;;;;;25.03;14.50;;;;;;;;;;5074143;28;20185;-46
2023/01/22 09:08:04;;;;;;;22.73;13.85;;;;;;;;;;5076910;28;20415;-46
2023/01/22 09:10:30;;;;;;;20.05;12.65;;;;;;;;;;5076631;28;20192;-46
2023/01/22 09:12:58;;;;;;;23.37;12.30;;;;;;;;;;5075982;28;20546;-46
2023/01/22 09:15:24;;;;;;;25.02;11.90;;;;;;;;;;5080204;28;20409;-47
2023/01/22 09:17:50;;;;;;;19.47;12.70;;;;;;;;;;5081650;28;20186;-46
2023/01/22 09:20:16;;;;;;;18.80;11.07;;;;;;;;;;5073679;28;20429;-46
2023/01/22 09:22:46;;;;;;;20.48;13.77;;;;;;;;;;5076682;28;20166;-48
2023/01/22 09:25:12;;;;;;;20.75;12.80;;;;;;;;;;5070413;28;20178;-46
2023/01/22 09:27:38;;;;;;;17.58;12.40;;;;;;;;;;5075130;28;20666;-46
2023/01/22 09:30:04;;;;;;;20.13;13.33;;;;;;;;;;5074299;28;20405;-46
2023/01/22 09:32:30;;;;;;;21.98;13.25;;;;;;;;;;5077558;28;20405;-46
2023/01/22 09:34:56;;;;;;;20.70;13.10;;;;;;;;;;5079301;28;20320;-46
2023/01/22 09:37:24;;;;;;;21.87;12.10;;;;;;;;;;5073899;28;20408;-46
2023/01/22 09:39:50;;;;;;;20.20;14.25;;;;;;;;;;5073529;28;20488;-46
2023/01/22 09:42:36;;;;;;;22.42;14.10;;;;;;;;;;5075735;28;20266;-46
2023/01/22 09:45:04;;;;;;;22.48;13.32;;;;;;;;;;5076913;28;20271;-46
2023/01/22 09:47:39;;;;;;;19.90;13.40;;;;;;;;;;5076678;28;20591;-46
2023/01/22 09:50:07;;;;;;;23.10;14.63;;;;;;;;;;5075259;28;20182;-46
2023/01/22 09:52:36;;;;;;;20.63;12.93;;;;;;;;;;5078646;28;20158;-46
2023/01/22 09:55:02;;;;;;;18.35;12.35;;;;;;;;;;5073258;28;20728;-47
2023/01/22 09:57:28;;;;;;;20.75;12.80;;;;;;;;;;5073538;28;20182;-47
2023/01/22 09:59:55;;;;;;;20.17;11.20;;;;;;;;;;5073085;28;20200;-46
2023/01/22 10:02:43;;;;;;;18.55;13.95;;;;;;;;;;5073198;28;20505;-46
2023/01/22 10:05:21;;;;;;;18.00;11.52;;;;;;;;;;5073319;28;20183;-46
2023/01/22 10:07:52;;;;;;;32.60;11.80;;;;;;;;;;5073103;28;20185;-46
2023/01/22 10:10:19;;;;;;;20.10;12.82;;;;;;;;;;5072749;28;20582;-46
2023/01/22 10:12:46;;;;;;;17.67;12.27;;;;;;;;;;5073214;28;20174;-46
2023/01/22 10:15:14;;;;;;;25.63;14.60;;;;;;;;;;5073041;28;20171;-46
2023/01/22 10:17:41;;;;;;;22.25;13.52;;;;;;;;;;5073164;28;20174;-46
2023/01/22 10:20:07;;;;;;;24.88;13.75;;;;;;;;;;5072647;28;20205;-46
2023/01/22 10:22:33;;;;;;;19.65;12.55;;;;;;;;;;5072995;28;20212;-46
2023/01/22 10:24:59;;;;;;;17.93;12.13;;;;;;;;;;5071835;28;20173;-46
2023/01/22 10:27:33;;;;;;;16.10;10.07;;;;;;;;;;5072843;28;20770;-46
2023/01/22 10:30:01;;;;;;;21.85;13.43;;;;;;;;;;5072506;28;20447;-46
2023/01/22 10:32:28;;;;;;;16.33;11.93;;;;;;;;;;5073152;28;20718;-46
2023/01/22 10:34:58;;;;;;;20.63;12.98;;;;;;;;;;5072543;28;20249;-46
2023/01/22 10:37:24;;;;;;;21.15;12.43;;;;;;;;;;5072491;28;20170;-46
2023/01/22 10:39:55;;;;;;;20.20;12.57;;;;;;;;;;5068077;28;20676;-47
2023/01/22 10:42:22;;;;;;;19.98;13.68;;;;;;;;;;5081120;28;20812;-47
2023/01/22 10:44:48;;;;;;;19.02;12.48;;;;;;;;;;5092716;28;20237;-45
2023/01/22 10:47:20;;;;;;;21.20;11.70;;;;;;;;;;5092586;28;20177;-46
2023/01/22 10:49:47;;;;;;;21.63;12.93;;;;;;;;;;5089321;28;20234;-46
2023/01/22 10:52:22;;;;;;;17.98;12.10;;;;;;;;;;5072372;28;20642;-46
2023/01/22 10:54:53;;;;;;;19.52;13.00;;;;;;;;;;5072180;28;20182;-48
2023/01/22 10:57:20;;;;;;;17.70;12.13;;;;;;;;;;5072228;28;20182;-47
2023/01/22 10:59:50;;;;;;;18.52;13.32;;;;;;;;;;5090659;28;20201;-46
2023/01/22 11:02:19;;;;;;;18.50;11.35;;;;;;;;;;5092088;28;20220;-47
2023/01/22 11:04:45;;;;;;;16.27;12.02;;;;;;;;;;5092602;28;20528;-48
2023/01/22 11:07:13;;;;;;;16.98;10.52;;;;;;;;;;5092339;28;20170;-46
2023/01/22 11:10:00;;;;;;;20.08;12.82;;;;;;;;;;5092012;28;20203;-47
2023/01/22 11:12:29;;;;;;;16.52;11.05;;;;;;;;;;5092242;28;20356;-46
2023/01/22 11:15:02;;;;;;;17.58;11.85;;;;;;;;;;5092287;28;20641;-48
2023/01/22 11:17:38;;;;;;;21.10;12.70;;;;;;;;;;5092104;28;20185;-48
2023/01/22 11:20:10;;;;;;;21.08;13.05;;;;;;;;;;5091609;28;20209;-46
2023/01/22 11:22:37;;;;;;;21.77;12.50;;;;;;;;;;5092114;28;20185;-48
2023/01/22 11:25:05;;;;;;;21.02;12.90;;;;;;;;;;5091908;28;20189;-47
2023/01/22 11:27:46;;;;;;;15.68;9.75;;;;;;;;;;5091725;28;20540;-48
2023/01/22 11:30:21;;;;;;;20.58;12.05;;;;;;;;;;5091730;28;20574;-46
2023/01/22 11:33:01;;;;;;;20.10;11.10;;;;;;;;;;5091903;28;20173;-46
2023/01/22 11:35:33;;;;;;;21.60;12.55;;;;;;;;;;5091825;28;20165;-46
2023/01/22 11:38:02;;;;;;;19.23;12.65;;;;;;;;;;5051661;28;20531;-46
2023/01/22 11:40:28;;;;;;;23.42;14.25;;;;;;;;;;5087929;28;20235;-46
2023/01/22 11:43:10;;;;;;;21.02;14.10;;;;;;;;;;5091800;28;20169;-45
2023/01/22 11:45:36;;;;;;;18.23;13.00;;;;;;;;;;5091674;28;20184;-47
2023/01/22 11:48:37;;;;;;;19.13;12.45;;;;;;;;;;5080235;28;20650;-46
2023/01/22 11:51:09;;;;;;;21.58;13.25;;;;;;;;;;4996619;28;20194;-46
2023/01/22 11:53:35;;;;;;;21.30;13.23;;;;;;;;;;5062858;28;20699;-47
2023/01/22 11:56:10;;;;;;;24.07;13.33;;;;;;;;;;5083587;28;20225;-48
2023/01/22 11:58:38;;;;;;;21.60;13.80;;;;;;;;;;5070928;28;20405;-47
2023/01/22 12:01:13;;;;;;;20.02;12.48;;;;;;;;;;5071417;28;20220;-48
2023/01/22 12:03:42;;;;;;;20.02;12.45;;;;;;;;;;5071374;28;20544;-48
2023/01/22 12:06:11;;;;;;;16.77;10.95;;;;;;;;;;5071274;28;20245;-49
2023/01/22 12:08:44;;;;;;;19.50;13.25;;;;;;;;;;5066037;28;20532;-48
2023/01/22 12:11:16;;;;;;;22.33;12.80;;;;;;;;;;5075975;28;20189;-46
2023/01/22 12:13:48;;;;;;;21.85;13.18;;;;;;;;;;5076940;28;20524;-46
2023/01/22 12:16:27;;;;;;;23.58;14.93;;;;;;;;;;5084149;28;20189;-46
2023/01/22 12:19:12;;;;;;;21.38;12.23;;;;;;;;;;5091239;28;20216;-45
2023/01/22 12:21:43;;;;;;;22.45;14.27;;;;;;;;;;5091185;28;20197;-48
2023/01/22 12:24:16;;;;;;;21.27;12.77;;;;;;;;;;5091603;28;20209;-46
2023/01/22 12:26:53;;;;;;;25.23;13.35;;;;;;;;;;5090137;28;20555;-46
2023/01/22 12:29:29;;;;;;;23.05;14.15;;;;;;;;;;5091116;28;20220;-46
2023/01/22 12:32:09;;;;;;;23.05;14.05;;;;;;;;;;5091160;28;20185;-47
2023/01/22 12:34:41;;;;;;;19.33;12.02;;;;;;;;;;5090237;28;20169;-46
2023/01/22 12:37:10;;;;;;;24.10;13.40;;;;;;;;;;5089736;28;20195;-47
2023/01/22 12:39:40;;;;;;;24.10;13.90;;;;;;;;;;5050306;28;20201;-48
2023/01/22 12:42:14;;;;;;;21.02;13.73;;;;;;;;;;5072338;28;20746;-48
2023/01/22 12:44:50;;;;;;;22.67;14.27;;;;;;;;;;5089765;28;20188;-48
2023/01/22 12:47:36;;;;;;;21.65;13.57;;;;;;;;;;5091075;28;20272;-46
2023/01/22 12:50:02;;;;;;;25.90;14.13;;;;;;;;;;5053387;28;20217;-47
2023/01/22 12:52:35;;;;;;;21.60;13.43;;;;;;;;;;5094942;28;20728;-45
2023/01/22 12:55:03;;;;;;;22.35;12.85;;;;;;;;;;5094748;28;20404;-46
2023/01/22 12:57:37;;;;;;;18.90;13.80;;;;;;;;;;5094860;28;20656;-46
2023/01/22 13:00:22;;;;;;;26.10;13.82;;;;;;;;;;5094926;28;20190;-47
2023/01/22 13:02:48;;;;;;;22.95;13.43;;;;;;;;;;5094836;28;20204;-47
2023/01/22 13:05:26;;;;;;;18.73;12.90;;;;;;;;;;5094595;28;20177;-46
2023/01/22 13:08:10;;;;;;;25.38;13.57;;;;;;;;;;5094598;28;20418;-46
2023/01/22 13:10:36;;;;;;;22.67;14.27;;;;;;;;;;5094562;28;20588;-46
2023/01/22 13:13:14;;;;;;;23.92;13.38;;;;;;;;;;5094698;28;20256;-47
2023/01/22 13:15:41;;;;;;;20.50;12.73;;;;;;;;;;5094678;28;20270;-47
2023/01/22 13:18:18;;;;;;;23.98;13.85;;;;;;;;;;5094326;28;20547;-47
2023/01/22 13:20:54;;;;;;;24.75;14.35;;;;;;;;;;5093244;28;20280;-47
2023/01/22 13:23:20;;;;;;;30.80;15.02;;;;;;;;;;5093687;28;20191;-46
2023/01/22 13:25:51;;;;;;;24.20;14.25;;;;;;;;;;5092040;28;20236;-46
2023/01/22 13:28:18;;;;;;;21.20;13.52;;;;;;;;;;5092748;28;20185;-46
2023/01/22 13:30:54;;;;;;;26.40;14.57;;;;;;;;;;5084088;28;20212;-45
2023/01/22 13:33:20;;;;;;;25.15;14.40;;;;;;;;;;5074697;28;20169;-45
2023/01/22 13:35:46;;;;;;;20.25;12.77;;;;;;;;;;5074986;28;20672;-45
2023/01/22 13:38:20;;;;;;;26.58;14.95;;;;;;;;;;5081400;28;20560;-45
2023/01/22 13:41:09;;;;;;;23.85;13.45;;;;;;;;;;5072469;28;20209;-45
2023/01/22 13:43:37;;;;;;;19.20;13.18;;;;;;;;;;5067171;28;20649;-45
2023/01/22 13:46:04;;;;;;;29.17;15.85;;;;;;;;;;5076979;28;20260;-45
2023/01/22 13:48:30;;;;;;;28.67;14.07;;;;;;;;;;5075166;28;20165;-45
2023/01/22 13:50:56;;;;;;;28.67;14.90;;;;;;;;;;5076248;28;20227;-45
2023/01/22 13:53:30;;;;;;;22.60;13.90;;;;;;;;;;5078538;28;20401;-45
2023/01/22 13:55:56;;;;;;;23.65;13.55;;;;;;;;;;5082778;28;20981;-45
2023/01/22 13:58:31;;;;;;;25.02;13.50;;;;;;;;;;5092449;28;20245;-45
2023/01/22 14:00:57;;;;;;;23.10;12.95;;;;;;;;;;5076427;28;20198;-45
2023/01/22 14:03:25;;;;;;;30.75;14.27;;;;;;;;;;5084300;28;20277;-45
2023/01/22 14:06:01;;;;;;;19.35;12.18;;;;;;;;;;5092136;28;20218;-45
2023/01/22 14:08:27;;;;;;;24.83;14.55;;;;;;;;;;5091029;28;20188;-45
2023/01/22 14:10:57;;;;;;;27.23;16.43;;;;;;;;;;5092400;28;20383;-45
2023/01/22 14:13:23;;;;;;;26.20;14.20;;;;;;;;;;5073225;28;20427;-49
2023/01/22 14:15:58;;;;;;;22.67;13.23;;;;;;;;;;5091461;28;20526;-43
2023/01/22 14:18:24;;;;;;;25.52;14.95;;;;;;;;;;5092258;28;20415;-43
2023/01/22 14:20:50;;;;;;;24.35;14.88;;;;;;;;;;5092308;28;20758;-44
2023/01/22 14:23:16;;;;;;;28.95;15.73;;;;;;;;;;5091877;28;20180;-43
2023/01/22 14:25:50;;;;;;;27.37;15.00;;;;;;;;;;5092735;28;20555;-44
2023/01/22 14:28:17;;;;;;;26.10;16.05;;;;;;;;;;5092716;28;20910;-43
2023/01/22 14:30:43;;;;;;;27.15;14.82;;;;;;;;;;5092761;28;20685;-43
2023/01/22 14:33:14;;;;;;;20.52;13.07;;;;;;;;;;5093105;28;20181;-43